createdAt,value
2023-01-26T00:01:29.388Z,1.00
2023-01-26T00:03:57.534Z,0.97
2023-01-26T00:06:26.239Z,0.96
2023-01-26T00:08:56.653Z,0.94
2023-01-26T00:11:27.201Z,0.94
2023-01-26T00:13:56.977Z,0.91
2023-01-26T00:16:25.324Z,0.89
2023-01-26T00:18:53.936Z,0.89
2023-01-26T00:21:23.801Z,0.90
2023-01-26T00:23:52.799Z,0.92
2023-01-26T00:26:25.301Z,0.93
2023-01-26T00:28:53.674Z,0.91
2023-01-26T00:31:27.470Z,0.90
2023-01-26T00:33:56.060Z,0.87
2023-01-26T00:36:23.498Z,0.86
2023-01-26T00:38:53.382Z,0.81
2023-01-26T00:41:39.339Z,0.80
2023-01-26T00:44:06.495Z,0.79
2023-01-26T00:46:33.496Z,0.77
2023-01-26T00:49:01.132Z,0.77
2023-01-26T00:51:28.651Z,0.79
2023-01-26T00:53:55.929Z,0.79
2023-01-26T00:56:23.128Z,0.79
2023-01-26T00:58:50.838Z,0.78
2023-01-26T01:01:17.969Z,0.77
2023-01-26T01:03:45.168Z,0.77
2023-01-26T01:06:15.182Z,0.83
2023-01-26T01:08:42.183Z,0.86
2023-01-26T01:11:11.995Z,0.84
2023-01-26T01:13:39.874Z,0.82
2023-01-26T01:16:13.683Z,0.82
2023-01-26T01:18:42.554Z,0.84
2023-01-26T01:21:13.104Z,0.83
2023-01-26T01:23:41.363Z,0.88
2023-01-26T01:26:09.640Z,0.88
2023-01-26T01:28:38.202Z,0.91
2023-01-26T01:31:07.479Z,0.91
2023-01-26T01:33:34.953Z,0.91
2023-01-26T01:36:10.296Z,0.92
2023-01-26T01:38:37.765Z,0.90
2023-01-26T01:41:05.188Z,0.90
2023-01-26T01:43:32.710Z,0.93
2023-01-26T01:46:06.420Z,0.94
2023-01-26T01:48:52.618Z,0.96
2023-01-26T01:51:45.214Z,0.94
2023-01-26T01:54:17.749Z,0.95
2023-01-26T01:56:53.445Z,0.94
2023-01-26T01:59:21.529Z,0.96
2023-01-26T02:01:52.049Z,0.98
2023-01-26T02:04:22.698Z,1.02
2023-01-26T02:06:57.172Z,1.03
2023-01-26T02:09:50.707Z,1.03
2023-01-26T02:12:23.084Z,1.05
2023-01-26T02:14:53.139Z,1.05
2023-01-26T02:17:20.525Z,1.09
2023-01-26T02:19:54.974Z,1.11
2023-01-26T02:22:52.833Z,1.14
2023-01-26T02:25:52.035Z,1.13
2023-01-26T02:28:23.169Z,1.13
2023-01-26T02:30:51.366Z,1.14
2023-01-26T02:33:25.778Z,1.14
2023-01-26T02:35:53.531Z,1.16
2023-01-26T02:38:24.222Z,1.14
2023-01-26T02:41:36.911Z,1.14
2023-01-26T02:44:07.735Z,1.13
2023-01-26T02:46:35.254Z,1.15
2023-01-26T02:49:21.674Z,1.16
2023-01-26T02:51:48.758Z,1.17
2023-01-26T02:54:35.835Z,1.16
2023-01-26T02:57:03.210Z,1.18
2023-01-26T02:59:30.452Z,1.17
2023-01-26T03:01:58.353Z,1.18
2023-01-26T03:04:25.746Z,1.19
2023-01-26T03:06:53.366Z,1.20
2023-01-26T03:09:20.393Z,1.23
2023-01-26T03:11:47.758Z,1.24
2023-01-26T03:14:15.841Z,1.25
2023-01-26T03:16:43.928Z,1.26
2023-01-26T03:19:33.137Z,1.29
2023-01-26T03:22:18.967Z,1.31
2023-01-26T03:25:05.261Z,1.29
2023-01-26T03:27:42.672Z,1.27
2023-01-26T03:30:11.333Z,1.29
2023-01-26T03:32:39.094Z,1.27
2023-01-26T03:35:07.537Z,1.29
2023-01-26T03:37:43.636Z,1.31
2023-01-26T03:40:31.787Z,1.32
2023-01-26T03:43:17.926Z,1.34
2023-01-26T03:46:03.435Z,1.38
2023-01-26T03:48:49.425Z,1.40
2023-01-26T03:51:35.071Z,1.42
2023-01-26T03:54:20.996Z,1.41
2023-01-26T03:56:47.974Z,1.44
2023-01-26T03:59:16.807Z,1.44
2023-01-26T04:02:06.942Z,1.48
2023-01-26T04:04:53.025Z,1.50
2023-01-26T04:07:38.637Z,1.54
2023-01-26T04:10:06.515Z,1.57
2023-01-26T04:12:33.720Z,1.55
2023-01-26T04:15:19.856Z,1.56
2023-01-26T04:18:05.403Z,1.57
2023-01-26T04:20:50.932Z,1.58
2023-01-26T04:23:19.932Z,1.57
2023-01-26T04:25:48.837Z,1.57
2023-01-26T04:28:16.325Z,1.56
2023-01-26T04:30:43.743Z,1.56
2023-01-26T04:33:10.985Z,1.55
2023-01-26T04:35:40.731Z,1.57
2023-01-26T04:38:07.847Z,1.57
2023-01-26T04:40:34.851Z,1.59
2023-01-26T04:43:02.077Z,1.61
2023-01-26T04:45:29.277Z,1.60
2023-01-26T04:47:56.451Z,1.62
2023-01-26T04:50:23.540Z,1.63
2023-01-26T04:52:50.672Z,1.63
2023-01-26T04:55:17.663Z,1.63
2023-01-26T04:57:44.647Z,1.62
2023-01-26T05:00:13.230Z,1.62
2023-01-26T05:02:40.942Z,1.61
2023-01-26T05:05:08.593Z,1.64
2023-01-26T05:07:35.707Z,1.66
2023-01-26T05:10:02.987Z,1.68
2023-01-26T05:12:37.411Z,1.69
2023-01-26T05:15:05.031Z,1.72
2023-01-26T05:17:32.324Z,1.73
2023-01-26T05:19:59.493Z,1.75
2023-01-26T05:22:26.470Z,1.78
2023-01-26T05:24:53.435Z,1.80
2023-01-26T05:27:23.791Z,1.77
2023-01-26T05:29:51.859Z,1.78
2023-01-26T05:32:19.192Z,1.79
2023-01-26T05:34:46.450Z,1.80
2023-01-26T05:37:15.060Z,1.79
2023-01-26T05:39:42.639Z,1.81
2023-01-26T05:42:12.085Z,1.84
2023-01-26T05:44:39.843Z,1.83
2023-01-26T05:47:07.183Z,1.84
2023-01-26T05:49:34.427Z,1.86
2023-01-26T05:52:01.751Z,1.85
2023-01-26T05:54:29.089Z,1.86
2023-01-26T05:56:57.674Z,1.88
2023-01-26T05:59:24.999Z,1.89
2023-01-26T06:01:52.316Z,1.90
2023-01-26T06:04:19.770Z,1.91
2023-01-26T06:06:47.106Z,1.91
2023-01-26T06:09:14.689Z,1.93
2023-01-26T06:11:41.788Z,1.92
2023-01-26T06:14:08.978Z,1.92
2023-01-26T06:16:36.159Z,1.92
2023-01-26T06:19:03.928Z,1.91
2023-01-26T06:21:34.400Z,1.91
2023-01-26T06:24:01.716Z,1.93
2023-01-26T06:26:29.156Z,1.93
2023-01-26T06:28:56.715Z,1.94
2023-01-26T06:31:29.666Z,1.96
2023-01-26T06:33:56.896Z,1.97
2023-01-26T06:36:24.074Z,1.98
2023-01-26T06:38:56.894Z,1.96
2023-01-26T06:41:24.512Z,1.97
2023-01-26T06:43:51.668Z,1.97
2023-01-26T06:46:19.605Z,2.01
2023-01-26T06:48:47.216Z,2.02
2023-01-26T06:51:20.290Z,2.03
2023-01-26T06:53:59.076Z,2.03
2023-01-26T06:56:28.721Z,2.04
2023-01-26T06:58:56.019Z,2.03
2023-01-26T07:01:26.793Z,2.05
2023-01-26T07:03:55.446Z,2.06
2023-01-26T07:06:22.828Z,2.06
2023-01-26T07:08:49.919Z,2.05
2023-01-26T07:11:17.390Z,2.04
2023-01-26T07:13:44.585Z,2.05
2023-01-26T07:16:16.318Z,2.05
2023-01-26T07:18:44.361Z,2.05
2023-01-26T07:21:15.990Z,2.08
2023-01-26T07:23:43.245Z,2.09
2023-01-26T07:26:11.015Z,2.10
2023-01-26T07:28:40.175Z,2.12
2023-01-26T07:31:08.778Z,2.12
2023-01-26T07:33:36.123Z,2.14
2023-01-26T07:36:04.176Z,2.18
2023-01-26T07:38:32.916Z,2.19
2023-01-26T07:41:04.388Z,2.18
2023-01-26T07:43:34.610Z,2.20
2023-01-26T07:46:02.211Z,2.20
2023-01-26T07:48:32.229Z,2.22
2023-01-26T07:51:02.072Z,2.25
2023-01-26T07:53:30.915Z,2.28
2023-01-26T07:56:13.550Z,2.31
2023-01-26T07:58:41.161Z,2.34
2023-01-26T08:01:13.737Z,2.36
2023-01-26T08:03:49.980Z,2.39
2023-01-26T08:06:18.518Z,2.41
2023-01-26T08:08:53.986Z,2.43
2023-01-26T08:11:23.616Z,2.46
2023-01-26T08:13:51.138Z,2.47
2023-01-26T08:16:18.797Z,2.50
2023-01-26T08:18:47.338Z,2.51
2023-01-26T08:21:17.425Z,2.52
2023-01-26T08:23:51.567Z,2.53
2023-01-26T08:26:20.144Z,2.56
2023-01-26T08:28:48.091Z,2.59
2023-01-26T08:31:20.767Z,2.62
2023-01-26T08:33:50.911Z,2.63
2023-01-26T08:36:22.079Z,2.68
2023-01-26T08:38:51.363Z,2.68
2023-01-26T08:41:21.696Z,2.69
2023-01-26T08:43:49.012Z,2.72
2023-01-26T08:46:16.332Z,2.77
2023-01-26T08:48:43.767Z,2.82
2023-01-26T08:51:11.173Z,2.86
2023-01-26T08:53:38.700Z,2.91
2023-01-26T08:56:10.595Z,2.93
2023-01-26T08:58:38.828Z,2.93
2023-01-26T09:01:13.429Z,2.94
2023-01-26T09:03:41.546Z,2.93
2023-01-26T09:06:10.861Z,2.94
2023-01-26T09:08:38.491Z,2.98
2023-01-26T09:11:07.581Z,3.01
2023-01-26T09:13:37.127Z,3.03
2023-01-26T09:16:07.107Z,3.07
2023-01-26T09:18:38.949Z,3.13
2023-01-26T09:21:10.096Z,3.22
2023-01-26T09:23:38.817Z,3.33
2023-01-26T09:26:05.968Z,3.41
2023-01-26T09:28:33.099Z,3.49
2023-01-26T09:31:09.812Z,3.59
2023-01-26T09:33:37.833Z,3.66
2023-01-26T09:36:08.058Z,3.70
2023-01-26T09:38:35.514Z,3.74
2023-01-26T09:41:41.172Z,3.79
2023-01-26T09:44:25.669Z,3.82
2023-01-26T09:47:46.555Z,3.86
2023-01-26T09:50:35.092Z,3.87
2023-01-26T09:53:07.098Z,3.90
2023-01-26T09:55:34.313Z,3.89
2023-01-26T09:58:13.007Z,3.91
2023-01-26T10:00:58.116Z,3.94
2023-01-26T10:04:11.287Z,3.99
2023-01-26T10:06:38.982Z,3.97
2023-01-26T10:09:23.011Z,3.97
2023-01-26T10:11:59.269Z,3.99
2023-01-26T10:14:40.910Z,4.01
2023-01-26T10:17:20.538Z,4.02
2023-01-26T10:20:00.097Z,4.04
2023-01-26T10:22:44.721Z,4.01
2023-01-26T10:25:19.595Z,4.02
2023-01-26T10:27:47.122Z,4.03
2023-01-26T10:30:20.474Z,4.07
2023-01-26T10:32:52.482Z,4.12
2023-01-26T10:35:24.457Z,4.14
2023-01-26T10:37:53.194Z,4.17
2023-01-26T10:40:21.799Z,4.19
2023-01-26T10:42:59.699Z,4.19
2023-01-26T10:45:34.004Z,4.20
2023-01-26T10:48:16.200Z,4.23
2023-01-26T10:50:43.532Z,4.23
2023-01-26T10:53:30.610Z,4.34
2023-01-26T10:56:17.327Z,4.37
2023-01-26T10:58:55.194Z,4.33
2023-01-26T11:01:27.478Z,4.31
2023-01-26T11:04:14.983Z,4.28
2023-01-26T11:06:42.194Z,4.27
2023-01-26T11:09:15.443Z,4.27
2023-01-26T11:11:54.209Z,4.26
2023-01-26T11:14:21.340Z,4.24
2023-01-26T11:17:26.107Z,4.29
2023-01-26T11:20:27.084Z,4.35
2023-01-26T11:23:02.941Z,4.44
2023-01-26T11:25:45.056Z,4.58
2023-01-26T11:28:24.408Z,4.78
2023-01-26T11:31:16.217Z,5.07
2023-01-26T11:34:40.341Z,5.39
2023-01-26T11:37:45.407Z,5.37
2023-01-26T11:40:28.618Z,5.32
2023-01-26T11:43:24.244Z,5.26
2023-01-26T11:46:16.542Z,5.23
2023-01-26T11:49:25.225Z,5.24
2023-01-26T11:52:14.420Z,5.23
2023-01-26T11:55:11.055Z,5.28
2023-01-26T11:58:25.935Z,5.40
2023-01-26T12:01:06.045Z,5.51
2023-01-26T12:03:52.051Z,5.58
2023-01-26T12:06:28.689Z,5.60
2023-01-26T12:09:18.797Z,5.58
2023-01-26T12:12:08.928Z,5.53
2023-01-26T12:14:58.181Z,5.57
2023-01-26T12:17:42.643Z,5.73
2023-01-26T12:20:24.741Z,5.84
2023-01-26T12:23:04.752Z,5.82
2023-01-26T12:25:53.167Z,5.86
2023-01-26T12:28:42.200Z,6.01
2023-01-26T12:31:25.263Z,6.13
2023-01-26T12:33:56.795Z,6.22
2023-01-26T12:37:02.780Z,6.28
2023-01-26T12:40:25.574Z,6.44
2023-01-26T12:43:20.312Z,6.68
2023-01-26T12:45:54.525Z,6.80
2023-01-26T12:48:45.657Z,6.96
2023-01-26T12:51:36.085Z,6.93
2023-01-26T12:54:22.653Z,7.07
2023-01-26T12:56:56.459Z,7.19
2023-01-26T12:59:47.232Z,7.18
2023-01-26T13:02:15.670Z,7.17
2023-01-26T13:04:48.989Z,7.16
2023-01-26T13:07:40.971Z,7.27
2023-01-26T13:10:20.437Z,7.38
2023-01-26T13:12:58.628Z,7.49
2023-01-26T13:15:31.612Z,7.57
2023-01-26T13:18:01.585Z,7.66
2023-01-26T13:20:40.577Z,7.68
2023-01-26T13:23:43.374Z,7.73
2023-01-26T13:26:15.583Z,7.83
2023-01-26T13:28:44.060Z,7.94
2023-01-26T13:31:12.768Z,7.99
2023-01-26T13:33:42.110Z,8.02
2023-01-26T13:36:18.397Z,8.07
2023-01-26T13:39:00.252Z,8.06
2023-01-26T13:41:27.360Z,8.05
2023-01-26T13:44:22.949Z,8.03
2023-01-26T13:47:02.614Z,8.03
2023-01-26T13:49:42.066Z,8.05
2023-01-26T13:52:22.904Z,8.11
2023-01-26T13:54:57.999Z,8.10
2023-01-26T13:57:30.657Z,8.19
2023-01-26T14:00:00.969Z,8.30
2023-01-26T14:02:32.005Z,8.35
2023-01-26T14:05:01.862Z,8.34
2023-01-26T14:07:39.915Z,8.26
2023-01-26T14:10:08.812Z,8.14
2023-01-26T14:12:45.995Z,8.06
2023-01-26T14:15:31.394Z,7.97
2023-01-26T14:18:02.543Z,7.94
2023-01-26T14:20:32.519Z,7.95
2023-01-26T14:23:10.513Z,7.98
2023-01-26T14:25:39.253Z,8.00
2023-01-26T14:28:13.097Z,8.04
2023-01-26T14:30:40.974Z,8.12
2023-01-26T14:33:17.352Z,8.12
2023-01-26T14:36:01.414Z,8.14
2023-01-26T14:38:33.076Z,8.14
2023-01-26T14:41:01.496Z,8.13
2023-01-26T14:43:28.724Z,8.11
2023-01-26T14:46:09.479Z,8.07
2023-01-26T14:49:05.982Z,8.08
2023-01-26T14:51:36.813Z,8.10
2023-01-26T14:54:16.227Z,8.11
2023-01-26T14:56:47.769Z,8.17
2023-01-26T14:59:23.678Z,8.21
2023-01-26T15:01:51.314Z,8.24
2023-01-26T15:04:38.319Z,8.27
2023-01-26T15:07:37.542Z,8.29
2023-01-26T15:10:43.891Z,8.25
2023-01-26T15:13:10.979Z,8.22
2023-01-26T15:15:41.450Z,8.19
2023-01-26T15:18:14.783Z,8.16
2023-01-26T15:21:19.548Z,8.13
2023-01-26T15:23:52.136Z,8.09
2023-01-26T15:26:29.668Z,8.02
2023-01-26T15:29:00.433Z,7.94
2023-01-26T15:31:42.511Z,7.85
2023-01-26T15:34:48.372Z,7.82
2023-01-26T15:37:33.842Z,7.80
2023-01-26T15:40:00.972Z,7.76
2023-01-26T15:42:32.935Z,7.71
2023-01-26T15:45:00.312Z,7.68
2023-01-26T15:47:27.641Z,7.65
2023-01-26T15:49:54.793Z,7.62
2023-01-26T15:52:30.494Z,7.57
2023-01-26T15:54:57.821Z,7.54
2023-01-26T15:57:24.984Z,7.52
2023-01-26T15:59:52.238Z,7.48
2023-01-26T16:02:21.391Z,7.46
2023-01-26T16:04:48.635Z,7.43
2023-01-26T16:07:18.088Z,7.40
2023-01-26T16:09:45.408Z,7.38
2023-01-26T16:12:30.842Z,7.36
2023-01-26T16:14:59.716Z,7.33
2023-01-26T16:17:26.796Z,7.32
2023-01-26T16:19:55.371Z,7.28
2023-01-26T16:22:22.668Z,7.27
2023-01-26T16:24:50.081Z,7.26
2023-01-26T16:27:17.382Z,7.26
2023-01-26T16:29:44.535Z,7.25
2023-01-26T16:32:42.549Z,7.25
2023-01-26T16:35:17.338Z,7.23
2023-01-26T16:37:45.310Z,7.24
2023-01-26T16:40:15.942Z,7.24
2023-01-26T16:42:53.805Z,7.24
2023-01-26T16:45:26.666Z,7.24
2023-01-26T16:47:56.941Z,7.23
2023-01-26T16:50:26.211Z,7.24
2023-01-26T16:52:53.511Z,7.24
2023-01-26T16:55:20.738Z,7.24
2023-01-26T16:57:49.975Z,7.24
2023-01-26T17:00:20.424Z,7.23
2023-01-26T17:02:52.769Z,7.25
2023-01-26T17:05:21.979Z,7.25
2023-01-26T17:07:51.035Z,7.25
2023-01-26T17:10:18.813Z,7.26
2023-01-26T17:12:46.064Z,7.25
2023-01-26T17:15:13.555Z,7.24
2023-01-26T17:17:42.468Z,7.26
2023-01-26T17:20:19.245Z,7.25
2023-01-26T17:22:47.694Z,7.25
2023-01-26T17:25:17.700Z,7.25
2023-01-26T17:27:47.442Z,7.25
2023-01-26T17:30:14.981Z,7.27
2023-01-26T17:32:42.855Z,7.26
2023-01-26T17:35:10.667Z,7.29
2023-01-26T17:37:39.577Z,7.31
2023-01-26T17:40:09.321Z,7.30
2023-01-26T17:42:36.558Z,7.29
2023-01-26T17:45:05.698Z,7.27
2023-01-26T17:47:33.979Z,7.27
2023-01-26T17:50:01.583Z,7.25
2023-01-26T17:52:31.369Z,7.24
2023-01-26T17:54:59.101Z,7.23
2023-01-26T17:57:26.461Z,7.23
2023-01-26T17:59:53.775Z,7.22
2023-01-26T18:02:21.088Z,7.23
2023-01-26T18:04:49.060Z,7.21
2023-01-26T18:07:16.304Z,7.20
2023-01-26T18:09:43.426Z,7.19
2023-01-26T18:12:10.579Z,7.19
2023-01-26T18:14:37.703Z,7.19
2023-01-26T18:17:04.843Z,7.17
2023-01-26T18:19:32.003Z,7.17
2023-01-26T18:21:59.056Z,7.17
2023-01-26T18:24:26.539Z,7.16
2023-01-26T18:26:53.819Z,7.17
2023-01-26T18:29:20.944Z,7.15
2023-01-26T18:31:48.291Z,7.15
2023-01-26T18:34:15.717Z,7.13
2023-01-26T18:36:42.991Z,7.11
2023-01-26T18:39:14.423Z,7.12
2023-01-26T18:41:44.513Z,7.11
2023-01-26T18:44:11.995Z,7.10
2023-01-26T18:46:39.415Z,7.08
2023-01-26T18:49:06.599Z,7.07
2023-01-26T18:51:36.021Z,7.08
2023-01-26T18:54:04.821Z,7.08
2023-01-26T18:56:32.483Z,7.05
2023-01-26T18:58:59.752Z,7.05
2023-01-26T19:01:28.520Z,7.05
2023-01-26T19:03:56.072Z,7.03
2023-01-26T19:06:25.910Z,7.02
2023-01-26T19:09:00.431Z,7.03
2023-01-26T19:11:31.321Z,7.01
2023-01-26T19:13:59.925Z,7.01
2023-01-26T19:16:28.945Z,7.01
2023-01-26T19:18:56.771Z,7.00
2023-01-26T19:21:27.499Z,6.99
2023-01-26T19:23:57.620Z,6.99
2023-01-26T19:26:29.396Z,6.99
2023-01-26T19:28:58.177Z,6.96
2023-01-26T19:31:26.768Z,6.97
2023-01-26T19:33:59.603Z,6.96
2023-01-26T19:36:29.100Z,6.95
2023-01-26T19:38:56.515Z,6.96
2023-01-26T19:41:25.037Z,6.97
2023-01-26T19:43:52.671Z,6.99
2023-01-26T19:46:20.940Z,6.97
2023-01-26T19:48:49.145Z,6.97
2023-01-26T19:51:26.404Z,6.95
2023-01-26T19:53:58.978Z,6.97
2023-01-26T19:56:35.082Z,6.97
2023-01-26T19:59:06.689Z,6.97
2023-01-26T20:01:34.489Z,6.97
2023-01-26T20:04:05.406Z,6.97
2023-01-26T20:06:35.375Z,6.98
2023-01-26T20:09:06.222Z,6.99
2023-01-26T20:11:34.157Z,7.00
2023-01-26T20:14:06.267Z,6.99
2023-01-26T20:16:34.381Z,7.00
2023-01-26T20:19:02.555Z,6.99
2023-01-26T20:21:31.505Z,6.99
2023-01-26T20:24:05.254Z,7.01
2023-01-26T20:26:35.263Z,7.01
2023-01-26T20:29:03.496Z,6.99
2023-01-26T20:31:32.641Z,7.00
2023-01-26T20:34:01.762Z,7.01
2023-01-26T20:36:29.327Z,7.00
2023-01-26T20:38:57.335Z,7.00
2023-01-26T20:41:28.447Z,7.00
2023-01-26T20:44:00.524Z,7.01
2023-01-26T20:46:31.959Z,7.01
2023-01-26T20:48:59.624Z,7.01
2023-01-26T20:51:31.404Z,7.00
2023-01-26T20:53:58.792Z,7.00
2023-01-26T20:56:26.872Z,6.99
2023-01-26T20:58:56.182Z,6.97
2023-01-26T21:01:24.269Z,6.98
2023-01-26T21:03:52.166Z,6.98
2023-01-26T21:06:22.329Z,6.97
2023-01-26T21:08:54.094Z,6.99
2023-01-26T21:11:22.954Z,6.99
2023-01-26T21:13:52.090Z,6.99
2023-01-26T21:16:20.027Z,6.99
2023-01-26T21:18:47.668Z,7.00
2023-01-26T21:21:19.014Z,6.99
2023-01-26T21:23:47.425Z,6.99
2023-01-26T21:26:22.135Z,7.00
2023-01-26T21:28:59.683Z,7.00
2023-01-26T21:31:30.220Z,7.00
2023-01-26T21:34:02.640Z,6.99
2023-01-26T21:36:32.243Z,7.00
2023-01-26T21:39:00.881Z,6.98
2023-01-26T21:41:52.066Z,7.00
2023-01-26T21:44:28.664Z,6.99
2023-01-26T21:46:59.696Z,7.00
2023-01-26T21:49:28.637Z,6.99
2023-01-26T21:52:14.739Z,6.99
2023-01-26T21:54:41.997Z,6.99
2023-01-26T21:57:29.082Z,6.99
2023-01-26T21:59:56.679Z,6.98
2023-01-26T22:02:24.046Z,6.99
2023-01-26T22:04:52.219Z,6.97
2023-01-26T22:07:19.559Z,6.95
2023-01-26T22:09:46.660Z,6.94
2023-01-26T22:12:13.842Z,6.93
2023-01-26T22:14:40.968Z,6.92
2023-01-26T22:17:08.084Z,6.92
2023-01-26T22:19:35.808Z,6.92
2023-01-26T22:22:03.714Z,6.90
2023-01-26T22:24:31.354Z,6.91
2023-01-26T22:26:58.515Z,6.90
2023-01-26T22:29:25.630Z,6.90
2023-01-26T22:31:52.858Z,6.87
2023-01-26T22:34:20.050Z,6.85
2023-01-26T22:36:47.254Z,6.81
2023-01-26T22:39:14.658Z,6.78
2023-01-26T22:41:41.900Z,6.75
2023-01-26T22:44:09.421Z,6.70
2023-01-26T22:46:36.897Z,6.69
2023-01-26T22:49:07.017Z,6.66
2023-01-26T22:51:37.345Z,6.64
2023-01-26T22:54:06.207Z,6.62
2023-01-26T22:56:33.848Z,6.61
2023-01-26T22:59:01.683Z,6.59
2023-01-26T23:01:31.510Z,6.58
2023-01-26T23:04:00.388Z,6.58
2023-01-26T23:06:28.365Z,6.59
2023-01-26T23:08:55.867Z,6.61
2023-01-26T23:11:28.925Z,6.61
2023-01-26T23:13:58.313Z,6.60
2023-01-26T23:16:26.810Z,6.61
2023-01-26T23:18:57.372Z,6.61
2023-01-26T23:21:25.909Z,6.63
2023-01-26T23:23:53.141Z,6.63
2023-01-26T23:26:21.021Z,6.62
2023-01-26T23:28:48.542Z,6.63
2023-01-26T23:31:18.004Z,6.63
2023-01-26T23:33:45.682Z,6.62
2023-01-26T23:36:14.534Z,6.61
2023-01-26T23:38:41.910Z,6.61
2023-01-26T23:41:09.119Z,6.58
2023-01-26T23:43:36.669Z,6.59
2023-01-26T23:46:06.491Z,6.60
2023-01-26T23:48:33.646Z,6.60
2023-01-26T23:51:04.821Z,6.60
2023-01-26T23:53:32.550Z,6.60
2023-01-26T23:56:23.059Z,6.60
2023-01-26T23:58:50.166Z,6.59
